Time;durP1;ratioP1;P1;durP2;ratioP2;P2;SDS_P1;SDS_P2;PMS_P1;PMS_P2;Temp;Humidity;BMP_temperature;BMP_pressure;BME280_temperature;BME280_humidity;BME280_pressure;Samples;Min_cycle;Max_cycle;Signal;HPM_P1;HPM_P2
2022/08/26 00:01:24;;;;;;;3.25;2.92;;;;;;;13.48;80.98;101221.41;5057321;28;20033;-57
2022/08/26 00:03:50;;;;;;;5.28;3.20;;;;;;;13.52;81.10;101228.06;5038202;28;20044;-55
2022/08/26 00:06:17;;;;;;;3.50;2.90;;;;;;;13.50;81.35;101232.84;5055524;28;20051;-56
2022/08/26 00:08:43;;;;;;;5.60;5.10;;;;;;;13.45;81.52;101229.91;5059435;28;20029;-53
2022/08/26 00:11:10;;;;;;;5.82;4.68;;;;;;;13.34;81.61;101215.88;5057849;28;20025;-52
2022/08/26 00:13:36;;;;;;;6.85;4.75;;;;;;;13.34;82.26;101225.84;5058172;28;20029;-52
2022/08/26 00:16:04;;;;;;;4.53;4.00;;;;;;;13.32;82.59;101225.22;5040161;28;20021;-53
2022/08/26 00:18:30;;;;;;;3.40;3.10;;;;;;;13.24;82.25;101211.81;5040221;28;20029;-53
2022/08/26 00:20:55;;;;;;;3.85;3.42;;;;;;;13.27;82.03;101206.03;5057403;28;20037;-53
2022/08/26 00:23:22;;;;;;;6.90;3.40;;;;;;;13.31;81.74;101221.66;5056376;28;20127;-55
2022/08/26 00:25:48;;;;;;;5.22;3.10;;;;;;;13.29;81.53;101225.56;5039547;28;20533;-56
2022/08/26 00:28:14;;;;;;;5.90;3.60;;;;;;;13.25;81.68;101213.50;5057464;28;20639;-53
2022/08/26 00:30:40;;;;;;;6.53;3.25;;;;;;;13.29;81.78;101220.16;5039674;28;20029;-57
2022/08/26 00:33:07;;;;;;;5.57;3.22;;;;;;;13.30;81.01;101220.00;5040011;28;20064;-57
2022/08/26 00:35:33;;;;;;;4.97;4.43;;;;;;;13.32;80.82;101230.63;5057493;28;20082;-53
2022/08/26 00:38:00;;;;;;;2.97;2.78;;;;;;;13.27;80.75;101230.31;5039947;28;20040;-55
2022/08/26 00:40:32;;;;;;;3.28;2.30;;;;;;;13.25;80.99;101224.28;5057401;28;20029;-55
2022/08/26 00:42:59;;;;;;;3.35;3.05;;;;;;;13.21;80.98;101231.09;5057523;28;20060;-53
2022/08/26 00:45:26;;;;;;;4.28;2.88;;;;;;;13.14;80.62;101234.53;5057308;28;20039;-56
2022/08/26 00:47:56;;;;;;;3.40;3.10;;;;;;;13.02;80.91;101217.22;5057559;28;20037;-57
2022/08/26 00:50:27;;;;;;;3.30;3.00;;;;;;;13.12;80.98;101233.06;5057264;28;20033;-57
2022/08/26 00:52:56;;;;;;;3.35;3.05;;;;;;;13.06;81.13;101231.16;5059100;28;20049;-57
2022/08/26 00:55:30;;;;;;;4.18;3.45;;;;;;;13.05;81.05;101235.69;5040841;28;20484;-52
2022/08/26 00:57:56;;;;;;;3.40;3.10;;;;;;;13.00;80.84;101237.28;5042511;28;20091;-56
2022/08/26 01:00:25;;;;;;;3.50;3.15;;;;;;;12.91;81.35;101221.22;5059590;28;20033;-53
2022/08/26 01:02:52;;;;;;;3.10;2.90;;;;;;;12.96;81.09;101232.28;5058463;28;20036;-58
2022/08/26 01:05:18;;;;;;;4.35;3.90;;;;;;;12.92;80.96;101233.66;5058223;28;20048;-55
2022/08/26 01:07:45;;;;;;;3.50;3.20;;;;;;;12.83;81.10;101224.03;5060138;28;20620;-53
2022/08/26 01:10:15;;;;;;;8.93;4.05;;;;;;;12.83;81.50;101220.50;5060811;28;20036;-54
2022/08/26 01:12:46;;;;;;;6.38;5.88;;;;;;;12.88;81.46;101228.88;5058752;28;20029;-56
2022/08/26 01:15:18;;;;;;;6.95;5.03;;;;;;;12.84;82.13;101227.59;5041166;28;20029;-53
2022/08/26 01:17:44;;;;;;;5.93;5.35;;;;;;;12.72;82.35;101220.00;5057968;28;20132;-54
2022/08/26 01:20:34;;;;;;;5.03;4.10;;;;;;;12.75;81.82;101226.84;5055838;28;20432;-54
2022/08/26 01:23:03;;;;;;;4.15;3.72;;;;;;;12.78;81.92;101239.97;5056554;28;20037;-56
2022/08/26 01:25:32;;;;;;;3.58;3.28;;;;;;;12.77;82.03;101236.41;5056439;28;20036;-55
2022/08/26 01:28:04;;;;;;;3.50;3.20;;;;;;;12.76;81.70;101239.31;5056394;28;20103;-55
2022/08/26 01:30:32;;;;;;;3.65;3.35;;;;;;;12.67;81.37;101226.97;5038712;28;20079;-56
2022/08/26 01:33:02;;;;;;;5.38;3.05;;;;;;;12.67;81.38;101226.97;5038334;28;20116;-53
2022/08/26 01:35:28;;;;;;;4.13;3.42;;;;;;;12.60;81.20;101213.41;5038522;28;20465;-54
2022/08/26 01:37:56;;;;;;;4.15;3.75;;;;;;;12.67;81.75;101233.19;5056219;28;20037;-56
2022/08/26 01:40:32;;;;;;;4.07;3.80;;;;;;;12.65;81.36;101232.53;5056115;28;20354;-55
2022/08/26 01:43:01;;;;;;;3.92;3.63;;;;;;;12.63;81.53;101231.03;5038307;28;20533;-56
2022/08/26 01:45:31;;;;;;;5.18;3.88;;;;;;;12.60;81.85;101243.03;5037918;28;20037;-55
2022/08/26 01:47:59;;;;;;;8.15;3.90;;;;;;;12.57;81.85;101238.88;5037936;28;20029;-55
2022/08/26 01:50:29;;;;;;;4.53;4.10;;;;;;;12.51;81.90;101228.81;5021812;28;20036;-56
2022/08/26 01:52:58;;;;;;;4.30;3.78;;;;;;;12.56;81.57;101244.44;5055601;28;20048;-56
2022/08/26 01:55:26;;;;;;;4.25;3.85;;;;;;;12.56;81.57;101247.97;5055538;28;20486;-55
2022/08/26 01:57:54;;;;;;;4.75;3.60;;;;;;;12.55;81.65;101240.06;5055596;28;20040;-54
2022/08/26 02:00:22;;;;;;;4.10;3.80;;;;;;;12.52;81.24;101241.28;5055769;28;20090;-53
2022/08/26 02:03:15;;;;;;;3.63;3.28;;;;;;;12.35;81.75;101221.81;5055699;28;20033;-55
2022/08/26 02:05:36;;;;;;;5.95;5.07;;;;;;;12.37;81.90;101233.22;5040353;28;20032;-57
2022/08/26 02:08:03;;;;;;;4.80;4.38;;;;;;;12.43;82.16;101241.59;5055631;28;20029;-53
2022/08/26 02:10:29;;;;;;;5.40;4.90;;;;;;;12.42;81.65;101240.72;5021221;28;20037;-53
2022/08/26 02:12:54;;;;;;;5.78;4.38;;;;;;;12.35;81.67;101231.72;5037780;28;20028;-55
2022/08/26 02:15:21;;;;;;;4.90;4.43;;;;;;;12.42;81.88;101243.41;5037930;28;20029;-56
2022/08/26 02:17:47;;;;;;;5.13;4.63;;;;;;;12.31;81.45;101236.66;5037742;28;20512;-55
2022/08/26 02:20:17;;;;;;;4.72;4.35;;;;;;;12.39;81.66;101254.59;5055486;28;20056;-55
2022/08/26 02:22:43;;;;;;;4.50;4.10;;;;;;;12.37;81.35;101245.84;5055879;28;20486;-54
2022/08/26 02:25:32;;;;;;;6.60;6.10;;;;;;;12.34;82.26;101246.22;5055217;28;20083;-57
2022/08/26 02:27:59;;;;;;;5.65;5.05;;;;;;;12.33;81.99;101244.53;5041172;28;20041;-55
2022/08/26 02:30:30;;;;;;;4.85;4.55;;;;;;;12.32;82.14;101243.72;5054735;28;20041;-58
2022/08/26 02:33:02;;;;;;;5.80;4.60;;;;;;;12.24;81.98;101241.13;5055320;28;20354;-57
2022/08/26 02:35:29;;;;;;;5.43;4.85;;;;;;;12.29;81.84;101248.63;5055507;28;20052;-58
2022/08/26 02:37:56;;;;;;;4.97;4.65;;;;;;;12.25;81.71;101247.34;5055621;28;20043;-55
2022/08/26 02:40:26;;;;;;;7.80;5.60;;;;;;;12.26;81.59;101251.69;5022738;28;20123;-57
2022/08/26 02:42:53;;;;;;;5.00;4.60;;;;;;;12.24;81.82;101251.91;5038726;28;20029;-58
2022/08/26 02:45:19;;;;;;;9.70;8.88;;;;;;;12.12;81.83;101224.56;5039437;28;20020;-58
2022/08/26 02:47:46;;;;;;;7.70;6.95;;;;;;;12.05;83.00;101241.66;5021272;28;20036;-56
2022/08/26 02:50:12;;;;;;;6.28;5.75;;;;;;;12.02;82.69;101229.41;5037292;28;20112;-57
2022/08/26 02:52:39;;;;;;;5.18;4.78;;;;;;;12.12;82.41;101245.28;5054768;28;20085;-54
2022/08/26 02:55:05;;;;;;;5.05;4.65;;;;;;;12.07;82.19;101237.78;5054860;28;20029;-52
2022/08/26 02:57:31;;;;;;;7.07;6.15;;;;;;;12.07;82.22;101234.22;5054931;28;20049;-52
2022/08/26 02:59:59;;;;;;;6.00;5.40;;;;;;;12.10;82.84;101237.38;5037053;28;20489;-53
2022/08/26 03:02:26;;;;;;;6.43;5.32;;;;;;;12.12;82.63;101250.66;5054424;28;20085;-54
2022/08/26 03:04:51;;;;;;;8.82;7.85;;;;;;;12.11;82.48;101246.28;5054571;28;20385;-52
2022/08/26 03:07:19;;;;;;;11.02;9.43;;;;;;;12.06;83.14;101238.78;5021031;28;20036;-53
2022/08/26 03:09:45;;;;;;;9.02;7.53;;;;;;;12.00;83.02;101234.16;5054441;28;20037;-53
2022/08/26 03:12:11;;;;;;;6.93;6.32;;;;;;;12.00;83.11;101226.06;5036865;28;20043;-52
2022/08/26 03:14:37;;;;;;;6.47;5.88;;;;;;;12.08;82.85;101249.38;5054047;28;20028;-53
2022/08/26 03:17:03;;;;;;;6.57;6.07;;;;;;;12.03;82.34;101233.75;5054369;28;20036;-53
2022/08/26 03:19:30;;;;;;;6.90;5.65;;;;;;;12.04;82.51;101243.53;5054308;28;20115;-53
2022/08/26 03:21:57;;;;;;;6.20;5.68;;;;;;;12.02;82.30;101237.47;5054088;28;20504;-53
2022/08/26 03:24:24;;;;;;;5.45;5.05;;;;;;;12.01;82.06;101244.69;5036614;28;20039;-53
2022/08/26 03:26:50;;;;;;;7.40;6.85;;;;;;;12.00;82.18;101247.59;5036250;28;20458;-55
2022/08/26 03:32:02;;;;;;;7.28;6.60;;;;;;;11.92;82.29;101245.84;5039696;28;20037;-53
2022/08/26 03:34:28;;;;;;;6.60;6.00;;;;;;;11.93;82.68;101244.78;5020095;28;20098;-53
2022/08/26 03:36:54;;;;;;;6.55;5.90;;;;;;;11.96;82.46;101259.72;5036515;28;20449;-55
2022/08/26 03:39:20;;;;;;;6.13;5.68;;;;;;;11.93;82.31;101250.19;5053809;28;20029;-56
2022/08/26 03:41:46;;;;;;;6.28;5.68;;;;;;;11.89;82.40;101237.25;5053160;28;20042;-56
2022/08/26 03:44:12;;;;;;;7.18;6.63;;;;;;;11.92;82.32;101250.34;5036326;28;20020;-54
2022/08/26 03:46:38;;;;;;;6.80;6.30;;;;;;;11.83;82.69;101236.13;5036476;28;20095;-53
2022/08/26 03:49:04;;;;;;;6.95;6.32;;;;;;;11.89;82.64;101253.41;5054202;28;20029;-54
2022/08/26 03:51:36;;;;;;;5.90;5.40;;;;;;;11.81;82.47;101240.84;5054024;28;20126;-57
2022/08/26 03:54:02;;;;;;;5.55;5.15;;;;;;;11.86;82.60;101251.91;5055263;28;20068;-57
2022/08/26 03:56:29;;;;;;;5.80;5.40;;;;;;;11.86;82.32;101256.44;5053927;28;20029;-54
2022/08/26 03:58:55;;;;;;;9.57;8.77;;;;;;;11.72;82.59;101233.84;5054037;28;20033;-54
2022/08/26 04:01:20;;;;;;;8.80;7.97;;;;;;;11.80;82.94;101249.94;5019191;28;20116;-57
2022/08/26 04:04:02;;;;;;;9.02;8.20;;;;;;;11.76;82.60;101238.69;5053861;28;20484;-53
2022/08/26 04:06:31;;;;;;;7.43;6.57;;;;;;;11.75;83.15;101236.19;5036823;28;20036;-57
2022/08/26 04:09:00;;;;;;;7.80;7.20;;;;;;;11.73;82.70;101244.44;5053841;28;20065;-53
2022/08/26 04:11:30;;;;;;;6.85;6.30;;;;;;;11.69;83.21;101231.53;5036040;28;20436;-53
2022/08/26 04:13:58;;;;;;;8.27;7.60;;;;;;;11.71;82.97;101234.88;5053566;28;20029;-53
2022/08/26 04:16:25;;;;;;;9.02;8.23;;;;;;;11.71;83.02;101234.88;5036320;28;20033;-56
2022/08/26 04:18:51;;;;;;;9.30;8.40;;;;;;;11.67;83.04;101231.72;5053563;28;20496;-54
2022/08/26 04:21:17;;;;;;;8.80;7.47;;;;;;;11.67;83.86;101238.97;5053720;28;20104;-55
2022/08/26 04:23:43;;;;;;;7.50;6.80;;;;;;;11.66;83.39;101227.34;5053839;28;20040;-54
2022/08/26 04:26:09;;;;;;;7.20;6.57;;;;;;;11.52;83.26;101207.47;5053463;28;20028;-55
2022/08/26 04:28:35;;;;;;;7.82;7.22;;;;;;;11.65;83.22;101232.94;5036274;28;20119;-52
2022/08/26 04:31:01;;;;;;;6.38;5.88;;;;;;;11.64;83.58;101229.38;5053818;28;20029;-54
2022/08/26 04:33:27;;;;;;;6.88;6.28;;;;;;;11.62;83.22;101228.72;5054016;28;20029;-57
2022/08/26 04:36:09;;;;;;;11.02;9.95;;;;;;;11.52;83.44;101214.72;5053622;28;20021;-56
2022/08/26 04:38:35;;;;;;;13.20;11.80;;;;;;;11.63;83.53;101233.13;5036147;28;20056;-53
2022/08/26 04:41:02;;;;;;;10.48;9.57;;;;;;;11.53;83.94;101224.44;5018927;28;20132;-53
2022/08/26 04:43:30;;;;;;;13.13;9.98;;;;;;;11.56;84.13;101224.91;5053673;28;20107;-57
2022/08/26 04:45:58;;;;;;;11.38;10.32;;;;;;;11.64;84.52;101229.38;5052976;28;20040;-56
2022/08/26 04:48:25;;;;;;;13.02;11.60;;;;;;;11.62;84.44;101236.81;5053587;28;20033;-56
2022/08/26 04:50:51;;;;;;;9.40;8.60;;;;;;;11.64;84.30;101237.47;5035310;28;20025;-58
2022/08/26 04:53:17;;;;;;;10.55;9.65;;;;;;;11.63;84.08;101233.13;5053146;28;20048;-53
2022/08/26 04:55:43;;;;;;;15.07;12.70;;;;;;;11.55;84.18;101222.41;5040699;28;20114;-55
2022/08/26 04:58:09;;;;;;;12.18;11.05;;;;;;;11.60;84.16;101225.38;5058065;28;20117;-54
2022/08/26 05:00:35;;;;;;;9.23;8.52;;;;;;;11.60;84.27;101228.09;5040881;28;20056;-54
2022/08/26 05:03:01;;;;;;;15.10;12.13;;;;;;;11.57;84.93;101231.13;5059101;28;20109;-56
2022/08/26 05:05:26;;;;;;;24.48;13.68;;;;;;;11.56;84.86;101226.78;5041324;28;20032;-53
2022/08/26 05:07:52;;;;;;;15.43;11.57;;;;;;;11.51;84.71;101223.78;5058451;28;20378;-56
2022/08/26 05:10:18;;;;;;;8.65;7.95;;;;;;;11.60;84.10;101236.16;5039266;28;20036;-55
2022/08/26 05:12:44;;;;;;;9.77;8.98;;;;;;;11.46;84.09;101215.41;5058281;28;20029;-57
2022/08/26 05:15:10;;;;;;;11.05;9.95;;;;;;;11.60;84.29;101236.16;5058815;28;20040;-56
2022/08/26 05:17:36;;;;;;;11.02;9.88;;;;;;;11.62;84.61;101240.31;5058815;28;20021;-57
2022/08/26 05:20:03;;;;;;;9.65;8.75;;;;;;;11.62;83.84;101231.41;5039430;28;20028;-56
2022/08/26 05:22:29;;;;;;;13.63;12.35;;;;;;;11.53;84.28;101233.34;5023252;28;20029;-57
2022/08/26 05:24:54;;;;;;;14.88;13.38;;;;;;;11.51;84.67;101242.63;5057220;28;20028;-57
2022/08/26 05:27:20;;;;;;;12.45;10.88;;;;;;;11.49;84.33;101241.97;5056924;28;20108;-56
2022/08/26 05:29:47;;;;;;;9.75;8.95;;;;;;;11.28;84.58;101200.44;5022493;28;20036;-54
2022/08/26 05:32:13;;;;;;;8.45;7.70;;;;;;;11.63;84.13;101242.00;5038952;28;20040;-57
2022/08/26 05:34:39;;;;;;;12.60;10.25;;;;;;;11.74;84.52;101242.59;5038591;28;20029;-56
2022/08/26 05:37:05;;;;;;;27.45;13.85;;;;;;;11.79;84.83;101246.44;5038774;28;20424;-56
2022/08/26 05:39:32;;;;;;;75.38;17.65;;;;;;;11.82;84.72;101251.41;5038387;28;20063;-56
2022/08/26 05:41:58;;;;;;;63.40;15.82;;;;;;;11.90;85.05;101242.47;5056462;28;20087;-56
2022/08/26 05:44:24;;;;;;;35.95;14.25;;;;;;;11.96;85.42;101254.34;5056031;28;20465;-57
2022/08/26 05:46:50;;;;;;;244.40;19.85;;;;;;;11.97;84.94;101254.16;5055919;28;20044;-55
2022/08/26 05:49:16;;;;;;;124.95;18.08;;;;;;;11.92;85.79;101244.97;5056343;28;20025;-55
2022/08/26 05:51:45;;;;;;;82.20;15.90;;;;;;;12.01;86.35;101249.25;5055813;28;20347;-55
2022/08/26 05:54:11;;;;;;;25.00;12.90;;;;;;;12.08;86.26;101249.38;5055982;28;20113;-53
2022/08/26 05:56:38;;;;;;;119.05;15.43;;;;;;;12.13;85.60;101234.34;5055533;28;20032;-53
2022/08/26 05:59:04;;;;;;;51.58;13.80;;;;;;;12.22;85.64;101239.63;5055425;28;20047;-56
2022/08/26 06:01:32;;;;;;;230.13;21.63;;;;;;;12.20;85.94;101229.88;5056027;28;20067;-56
2022/08/26 06:04:00;;;;;;;165.90;20.85;;;;;;;12.13;86.37;101222.72;5055808;28;20043;-56
2022/08/26 06:06:30;;;;;;;29.50;13.07;;;;;;;12.25;87.20;101242.78;5055102;28;20417;-54
2022/08/26 06:08:58;;;;;;;58.05;15.82;;;;;;;12.33;86.72;101242.69;5037896;28;20029;-52
2022/08/26 06:11:25;;;;;;;123.38;18.90;;;;;;;12.32;86.45;101241.00;5037606;28;20499;-57
2022/08/26 06:13:53;;;;;;;53.38;16.75;;;;;;;12.34;86.90;101238.16;5055678;28;20037;-54
2022/08/26 06:16:22;;;;;;;15.40;12.05;;;;;;;12.34;86.56;101225.50;5020823;28;20132;-57
2022/08/26 06:18:49;;;;;;;27.42;13.20;;;;;;;12.48;85.34;101223.84;5037809;28;20029;-53
2022/08/26 06:21:27;;;;;;;68.15;20.50;;;;;;;12.66;84.10;101238.75;5055136;28;20508;-57
2022/08/26 06:26:47;;;;;;;14.48;12.48;;;;;;;12.59;85.28;101241.34;5040400;28;20052;-56
2022/08/26 06:29:13;;;;;;;17.90;14.77;;;;;;;12.59;85.37;101235.97;5037940;28;20036;-54
2022/08/26 06:31:39;;;;;;;25.45;17.23;;;;;;;12.61;85.40;101244.72;5055444;28;20033;-56
2022/08/26 06:34:05;;;;;;;24.83;18.83;;;;;;;12.60;85.99;101243.03;5037427;28;20363;-56
2022/08/26 06:36:33;;;;;;;16.55;14.25;;;;;;;12.61;86.34;101241.19;5054986;28;20087;-57
2022/08/26 06:39:05;;;;;;;11.38;10.38;;;;;;;12.65;86.07;101245.16;5037448;28;20392;-53
2022/08/26 06:41:32;;;;;;;10.30;9.43;;;;;;;12.65;86.04;101235.25;5036994;28;20029;-55
2022/08/26 06:43:59;;;;;;;17.40;14.63;;;;;;;12.72;86.39;101246.09;5037161;28;20031;-54
2022/08/26 06:46:25;;;;;;;12.02;10.90;;;;;;;12.71;85.93;101239.03;5055189;28;20063;-51
2022/08/26 06:48:52;;;;;;;11.27;10.18;;;;;;;12.84;85.80;101249.16;5054857;28;20104;-55
2022/08/26 06:51:21;;;;;;;15.40;13.82;;;;;;;12.89;85.46;101252.09;5055176;28;20033;-52
2022/08/26 06:53:49;;;;;;;11.35;10.25;;;;;;;12.94;85.44;101246.97;5054509;28;20508;-56
2022/08/26 06:56:23;;;;;;;15.25;12.10;;;;;;;12.98;85.37;101243.72;5054658;28;20087;-55
2022/08/26 06:58:50;;;;;;;13.55;11.65;;;;;;;13.06;85.89;101250.03;5004885;28;20029;-53
2022/08/26 07:01:20;;;;;;;11.13;10.02;;;;;;;13.09;85.51;101247.78;5036613;28;20057;-53
2022/08/26 07:03:47;;;;;;;11.98;10.90;;;;;;;13.18;84.94;101253.88;5036688;28;20033;-56
2022/08/26 07:06:14;;;;;;;12.38;10.70;;;;;;;13.21;84.79;101261.59;5020292;28;20040;-52
2022/08/26 07:08:39;;;;;;;13.75;11.98;;;;;;;13.11;84.99;101234.94;5036508;28;20462;-57
2022/08/26 07:11:07;;;;;;;11.10;10.00;;;;;;;13.30;85.25;101257.78;5037135;28;20028;-53
2022/08/26 07:13:36;;;;;;;20.27;15.93;;;;;;;13.34;85.04;101267.16;5054707;28;20025;-56
2022/08/26 07:16:04;;;;;;;12.40;11.15;;;;;;;13.40;85.22;101268.25;5053924;28;20521;-56
2022/08/26 07:18:30;;;;;;;14.90;11.35;;;;;;;13.46;85.09;101266.63;5053835;28;20039;-54
2022/08/26 07:20:55;;;;;;;23.50;17.13;;;;;;;13.38;85.22;101247.88;5054627;28;20029;-55
2022/08/26 07:23:22;;;;;;;29.42;20.15;;;;;;;13.54;86.33;101272.75;5054821;28;20112;-56
2022/08/26 07:25:47;;;;;;;35.65;23.65;;;;;;;13.63;86.88;101284.25;5054479;28;20490;-55
2022/08/26 07:28:13;;;;;;;32.40;18.02;;;;;;;13.71;86.95;101269.78;5054349;28;20070;-56
2022/08/26 07:30:39;;;;;;;16.27;13.70;;;;;;;13.79;86.40;101275.03;5054110;28;20420;-55
2022/08/26 07:33:06;;;;;;;14.85;12.93;;;;;;;13.85;85.86;101274.25;5036181;28;20370;-54
2022/08/26 07:35:31;;;;;;;34.78;20.48;;;;;;;13.88;86.07;101273.84;5036562;28;20162;-59
2022/08/26 07:37:57;;;;;;;35.95;21.83;;;;;;;13.77;87.07;101265.47;5036221;28;20452;-56
2022/08/26 07:40:23;;;;;;;18.38;14.57;;;;;;;13.87;86.47;101266.81;5036557;28;20043;-52
2022/08/26 07:42:49;;;;;;;26.50;19.75;;;;;;;13.95;86.40;101273.91;5054511;28;20108;-54
2022/08/26 07:45:15;;;;;;;24.48;18.65;;;;;;;13.87;86.66;101260.56;5054216;28;20068;-52
2022/08/26 07:47:41;;;;;;;16.05;13.52;;;;;;;14.00;85.95;101268.75;5053654;28;20083;-56
2022/08/26 07:50:07;;;;;;;13.77;12.48;;;;;;;14.09;85.64;101275.66;5053934;28;20033;-53
2022/08/26 07:52:33;;;;;;;37.28;23.90;;;;;;;14.12;86.18;101271.75;5035850;28;20047;-56
2022/08/26 07:55:00;;;;;;;25.98;19.35;;;;;;;14.19;85.95;101278.03;5036575;28;20033;-53
2022/08/26 07:57:27;;;;;;;21.10;15.45;;;;;;;14.23;85.62;101268.50;5053700;28;20025;-57
2022/08/26 07:59:54;;;;;;;16.80;13.18;;;;;;;14.37;85.19;101274.00;5052536;28;20079;-55
2022/08/26 08:02:20;;;;;;;39.08;22.48;;;;;;;14.42;86.39;101268.81;5053703;28;20418;-52
2022/08/26 08:04:46;;;;;;;23.17;18.08;;;;;;;14.56;85.48;101275.13;5053436;28;20514;-53
2022/08/26 08:07:11;;;;;;;26.40;20.65;;;;;;;14.60;85.17;101271.88;5053976;28;20047;-56
2022/08/26 08:09:37;;;;;;;19.83;17.08;;;;;;;14.72;84.57;101280.22;5035933;28;20063;-53
2022/08/26 08:12:04;;;;;;;13.88;12.20;;;;;;;14.73;84.06;101268.41;5054050;28;20111;-57
2022/08/26 08:14:30;;;;;;;21.50;14.82;;;;;;;14.90;83.62;101268.88;5053808;28;20069;-56
2022/08/26 08:16:56;;;;;;;27.92;19.63;;;;;;;14.95;84.00;101279.06;5035755;28;20029;-57
2022/08/26 08:19:22;;;;;;;35.45;23.83;;;;;;;15.05;83.61;101279.53;5053424;28;20036;-56
2022/08/26 08:21:48;;;;;;;37.05;25.65;;;;;;;15.05;83.43;101260.59;5053738;28;20469;-57
2022/08/26 08:24:13;;;;;;;26.20;19.60;;;;;;;15.22;83.05;101277.28;5053404;28;20068;-53
2022/08/26 08:26:40;;;;;;;22.05;17.13;;;;;;;15.27;82.61;101266.69;5053217;28;20037;-55
2022/08/26 08:29:07;;;;;;;29.13;20.38;;;;;;;15.39;82.67;101270.44;5056335;28;20428;-54
2022/08/26 08:31:34;;;;;;;37.08;24.85;;;;;;;15.50;82.61;101271.72;5056976;28;20036;-52
2022/08/26 08:34:00;;;;;;;24.42;17.80;;;;;;;15.44;82.40;101250.91;5057445;28;20087;-57
2022/08/26 08:36:26;;;;;;;24.00;18.65;;;;;;;15.68;81.81;101276.53;5056176;28;20032;-52
2022/08/26 08:38:52;;;;;;;25.95;17.80;;;;;;;15.73;81.23;101265.06;5057456;28;20040;-55
2022/08/26 08:41:44;;;;;;;24.48;16.83;;;;;;;15.82;80.70;101270.13;5057427;28;20033;-54
2022/08/26 08:44:18;;;;;;;12.77;11.30;;;;;;;15.95;80.12;101263.84;5039165;28;20132;-56
2022/08/26 08:46:48;;;;;;;24.60;17.67;;;;;;;16.06;81.19;101259.66;5057042;28;20061;-54
2022/08/26 08:49:14;;;;;;;14.23;12.45;;;;;;;16.12;80.60;101258.00;5056841;28;20374;-56
2022/08/26 08:51:52;;;;;;;10.98;9.98;;;;;;;16.30;79.61;101271.72;5056898;28;20414;-57
2022/08/26 08:54:18;;;;;;;11.43;9.82;;;;;;;16.48;78.39;101273.75;5057385;28;20354;-57
2022/08/26 08:57:09;;;;;;;10.30;9.25;;;;;;;16.69;77.94;101269.09;5057036;28;20028;-57
2022/08/26 08:59:46;;;;;;;11.68;8.88;;;;;;;16.88;76.85;101270.94;5043026;28;20107;-55
2022/08/26 09:02:35;;;;;;;16.27;10.95;;;;;;;17.17;75.61;101269.53;5057065;28;20031;-58
2022/08/26 09:05:13;;;;;;;11.77;10.52;;;;;;;17.56;74.69;101273.03;5042986;28;20040;-54
2022/08/26 09:07:44;;;;;;;18.75;13.75;;;;;;;17.98;74.81;101276.09;5056616;28;20041;-56
2022/08/26 09:10:46;;;;;;;11.68;10.00;;;;;;;18.38;72.63;101281.09;5056869;28;20037;-57
2022/08/26 09:13:14;;;;;;;14.73;12.70;;;;;;;18.73;71.81;101275.06;5055690;28;20381;-54
2022/08/26 09:15:52;;;;;;;17.10;12.43;;;;;;;19.21;70.16;101272.63;5055398;28;20028;-57
2022/08/26 09:18:43;;;;;;;22.23;13.13;;;;;;;20.51;67.00;101265.41;5042688;28;20117;-57
2022/08/26 09:21:15;;;;;;;12.90;10.88;;;;;;;22.02;63.73;101260.53;5030085;28;20366;-53
2022/08/26 09:23:42;;;;;;;22.63;13.50;;;;;;;23.09;59.91;101260.31;5062694;28;20040;-57
2022/08/26 09:26:29;;;;;;;7.88;7.18;;;;;;;24.25;57.06;101264.28;5060734;28;20061;-53
2022/08/26 09:29:01;;;;;;;11.88;10.65;;;;;;;24.28;55.85;101261.00;5061538;28;20068;-55
2022/08/26 09:31:30;;;;;;;7.00;6.40;;;;;;;24.53;57.35;101256.75;5040800;28;20029;-52
2022/08/26 09:34:23;;;;;;;6.25;5.72;;;;;;;23.84;57.52;101254.97;5038722;28;20032;-54
2022/08/26 09:36:52;;;;;;;13.98;12.43;;;;;;;22.98;59.09;101262.91;5056900;28;20025;-54
2022/08/26 09:39:30;;;;;;;13.57;11.77;;;;;;;22.22;58.48;101263.56;5055797;28;20116;-55
2022/08/26 09:42:21;;;;;;;8.13;7.40;;;;;;;21.76;61.99;101251.09;5038649;28;20033;-55
2022/08/26 09:45:07;;;;;;;8.35;7.65;;;;;;;21.39;61.68;101248.81;5039450;28;20060;-53
2022/08/26 09:47:38;;;;;;;8.07;7.47;;;;;;;21.21;63.84;101261.63;5056089;28;20025;-55
2022/08/26 09:50:29;;;;;;;8.48;7.70;;;;;;;20.99;64.09;101257.94;5038340;28;20347;-52
2022/08/26 09:53:14;;;;;;;9.18;7.90;;;;;;;20.88;64.12;101254.19;5041454;28;20064;-57
2022/08/26 09:55:46;;;;;;;7.72;6.85;;;;;;;20.68;64.69;101244.50;5038385;28;20484;-57
2022/08/26 09:58:16;;;;;;;7.65;6.85;;;;;;;20.67;64.75;101250.19;5038313;28;20067;-56
2022/08/26 10:00:54;;;;;;;8.05;7.03;;;;;;;20.71;63.73;101256.00;5055873;28;20108;-57
2022/08/26 10:03:31;;;;;;;12.93;8.77;;;;;;;20.82;64.28;101252.41;5055672;28;20025;-56
2022/08/26 10:06:00;;;;;;;14.00;10.80;;;;;;;20.75;63.17;101254.47;5038199;28;20040;-56
2022/08/26 10:08:32;;;;;;;6.43;5.82;;;;;;;20.98;63.82;101250.81;5055434;28;20371;-56
2022/08/26 10:11:01;;;;;;;6.60;5.90;;;;;;;21.13;63.29;101251.09;5056124;28;20024;-56
2022/08/26 10:13:35;;;;;;;9.98;8.90;;;;;;;21.14;61.86;101247.28;5055197;28;20487;-56
2022/08/26 10:16:11;;;;;;;15.02;9.15;;;;;;;21.14;62.23;101252.75;5038773;28;20025;-55
2022/08/26 10:18:42;;;;;;;11.10;9.95;;;;;;;21.18;61.61;101244.91;5037926;28;20536;-56
2022/08/26 10:21:14;;;;;;;15.65;9.60;;;;;;;22.68;59.37;101243.38;5037694;28;20029;-57
2022/08/26 10:23:44;;;;;;;13.32;8.85;;;;;;;24.71;53.03;101247.22;5055344;28;20040;-55
2022/08/26 10:26:32;;;;;;;8.80;7.03;;;;;;;26.50;52.55;101231.81;5037430;28;20033;-56
2022/08/26 10:29:11;;;;;;;9.77;7.40;;;;;;;26.99;50.50;101231.03;5040050;28;20092;-57
2022/08/26 10:31:43;;;;;;;11.32;6.65;;;;;;;27.41;48.51;101232.41;5037751;28;20057;-55
2022/08/26 10:34:10;;;;;;;8.27;6.53;;;;;;;26.70;49.91;101220.72;5037786;28;20033;-57
2022/08/26 10:36:48;;;;;;;5.68;4.97;;;;;;;28.01;48.65;101221.13;5021930;28;20052;-57
2022/08/26 10:39:21;;;;;;;9.88;6.95;;;;;;;29.46;42.75;101213.34;5023844;28;20029;-57
2022/08/26 10:41:52;;;;;;;10.43;5.90;;;;;;;28.93;42.00;101222.72;5056758;28;20055;-54
2022/08/26 10:44:19;;;;;;;3.58;2.97;;;;;;;28.15;45.38;101212.94;5055873;28;20481;-57
2022/08/26 10:46:56;;;;;;;8.45;5.68;;;;;;;27.84;39.76;101201.38;5054747;28;20041;-56
2022/08/26 10:49:22;;;;;;;7.85;5.10;;;;;;;28.15;44.05;101212.94;5038334;28;20028;-57
2022/08/26 10:52:01;;;;;;;5.03;3.55;;;;;;;28.39;42.01;101210.16;5055930;28;20035;-57
2022/08/26 10:54:56;;;;;;;6.15;3.58;;;;;;;28.17;38.49;101200.47;5056301;28;20029;-57
2022/08/26 10:57:51;;;;;;;5.03;3.22;;;;;;;27.98;43.05;101214.22;5058049;28;20357;-56
2022/08/26 11:03:33;;;;;;;3.03;2.10;;;;;;;29.34;39.60;101199.16;5039995;28;20098;-53
2022/08/26 11:06:20;;;;;;;4.15;3.00;;;;;;;30.80;32.85;101191.34;5055011;28;20025;-56
2022/08/26 11:08:53;;;;;;;6.70;2.42;;;;;;;31.68;37.57;101187.25;5040013;28;20080;-56
2022/08/26 11:11:44;;;;;;;4.28;2.70;;;;;;;32.07;34.05;101186.44;5037437;28;20359;-55
2022/08/26 11:14:29;;;;;;;5.07;3.30;;;;;;;32.72;34.57;101189.53;5023861;28;20060;-56
2022/08/26 11:16:57;;;;;;;8.00;4.05;;;;;;;32.64;32.20;101182.03;5054527;28;20117;-56
2022/08/26 11:19:57;;;;;;;6.32;3.08;;;;;;;32.54;28.89;101186.72;5054582;28;20433;-57
2022/08/26 11:22:30;;;;;;;11.30;4.00;;;;;;;32.25;28.73;101186.50;5041777;28;20059;-56
2022/08/26 11:25:02;;;;;;;3.73;2.70;;;;;;;31.83;30.26;101187.66;5054316;28;20063;-52
2022/08/26 11:27:51;;;;;;;7.47;3.17;;;;;;;31.36;29.76;101181.66;5054176;28;20033;-53
2022/08/26 11:30:39;;;;;;;6.35;3.00;;;;;;;32.06;28.33;101187.59;5023329;28;20090;-57
2022/08/26 11:33:06;;;;;;;9.85;2.90;;;;;;;30.18;34.42;101180.72;5039948;28;20090;-53
2022/08/26 11:35:48;;;;;;;4.88;2.35;;;;;;;30.70;34.64;101184.03;5054005;28;20108;-57
2022/08/26 11:38:19;;;;;;;11.23;3.13;;;;;;;32.84;31.58;101177.75;5036634;28;20039;-56
2022/08/26 11:40:55;;;;;;;4.30;2.55;;;;;;;34.14;27.37;101168.28;5035915;28;20564;-56